createdAt,value
2023-05-12T00:01:07.666Z,83.00
2023-05-12T00:03:34.240Z,83.23
2023-05-12T00:06:03.623Z,83.85
2023-05-12T00:08:31.125Z,83.99
2023-05-12T00:10:57.784Z,83.97
2023-05-12T00:13:24.436Z,84.12
2023-05-12T00:15:51.356Z,84.28
2023-05-12T00:18:17.880Z,84.32
2023-05-12T00:20:44.317Z,84.69
2023-05-12T00:23:11.406Z,84.82
2023-05-12T00:25:37.768Z,84.82
2023-05-12T00:28:04.297Z,84.72
2023-05-12T00:30:30.726Z,84.83
2023-05-12T00:32:57.362Z,84.04
2023-05-12T00:35:23.860Z,84.01
2023-05-12T00:37:50.259Z,84.86
2023-05-12T00:40:16.758Z,84.95
2023-05-12T00:42:43.655Z,85.09
2023-05-12T00:45:10.615Z,85.42
2023-05-12T00:47:37.281Z,84.83
2023-05-12T00:50:05.707Z,85.04
2023-05-12T00:52:32.286Z,85.33
2023-05-12T00:55:00.288Z,85.21
2023-05-12T00:57:27.888Z,85.33
2023-05-12T00:59:55.249Z,85.64
2023-05-12T01:02:21.978Z,85.77
2023-05-12T01:04:49.258Z,85.84
2023-05-12T01:07:19.161Z,85.84
2023-05-12T01:09:45.530Z,85.59
2023-05-12T01:12:11.953Z,85.45
2023-05-12T01:14:38.910Z,85.81
2023-05-12T01:17:10.265Z,85.53
2023-05-12T01:19:56.406Z,85.82
2023-05-12T01:22:23.906Z,85.33
2023-05-12T01:24:52.755Z,85.83
2023-05-12T01:27:20.750Z,86.44
2023-05-12T01:29:48.242Z,86.47
2023-05-12T01:32:15.300Z,86.59
2023-05-12T01:34:42.905Z,86.43
2023-05-12T01:37:09.953Z,86.18
2023-05-12T01:39:36.972Z,86.56
2023-05-12T01:42:04.469Z,86.75
2023-05-12T01:44:30.977Z,86.95
2023-05-12T01:46:57.413Z,86.63
2023-05-12T01:49:23.934Z,86.84
2023-05-12T01:51:50.332Z,86.79
2023-05-12T01:54:16.756Z,86.87
2023-05-12T01:56:43.120Z,86.97
2023-05-12T01:59:09.483Z,86.89
2023-05-12T02:01:37.044Z,86.78
2023-05-12T02:04:04.629Z,86.64
2023-05-12T02:06:31.557Z,87.12
2023-05-12T02:08:58.205Z,86.76
2023-05-12T02:11:24.756Z,86.25
2023-05-12T02:13:51.132Z,86.39
2023-05-12T02:16:17.553Z,85.99
2023-05-12T02:18:44.158Z,86.85
2023-05-12T02:21:10.812Z,86.25
2023-05-12T02:23:37.306Z,86.46
2023-05-12T02:26:03.752Z,86.44
2023-05-12T02:28:30.218Z,86.80
2023-05-12T02:30:56.939Z,86.89
2023-05-12T02:33:23.400Z,86.86
2023-05-12T02:35:50.003Z,87.20
2023-05-12T02:38:16.532Z,87.24
2023-05-12T02:40:42.941Z,87.15
2023-05-12T02:43:09.283Z,87.17
2023-05-12T02:45:35.920Z,87.54
2023-05-12T02:48:02.463Z,87.33
2023-05-12T02:50:28.935Z,87.31
2023-05-12T02:52:55.283Z,87.16
2023-05-12T02:55:21.685Z,87.32
2023-05-12T02:57:48.117Z,87.46
2023-05-12T03:00:15.061Z,86.83
2023-05-12T03:02:41.674Z,86.90
2023-05-12T03:05:09.156Z,86.60
2023-05-12T03:07:35.693Z,86.11
2023-05-12T03:10:02.173Z,86.45
2023-05-12T03:12:29.529Z,86.02
2023-05-12T03:14:56.280Z,86.12
2023-05-12T03:17:22.776Z,86.30
2023-05-12T03:19:49.217Z,86.23
2023-05-12T03:22:15.670Z,86.48
2023-05-12T03:24:42.055Z,86.36
2023-05-12T03:27:08.424Z,86.51
2023-05-12T03:29:34.793Z,86.36
2023-05-12T03:32:01.193Z,86.36
2023-05-12T03:34:27.607Z,86.60
2023-05-12T03:36:54.029Z,87.02
2023-05-12T03:39:20.387Z,86.69
2023-05-12T03:41:46.845Z,86.51
2023-05-12T03:44:13.324Z,86.79
2023-05-12T03:46:39.777Z,87.18
2023-05-12T03:49:06.271Z,87.08
2023-05-12T03:51:32.655Z,87.15
2023-05-12T03:53:59.027Z,87.03
2023-05-12T03:56:25.435Z,86.55
2023-05-12T03:58:51.999Z,86.45
2023-05-12T04:01:18.385Z,86.89
2023-05-12T04:03:44.948Z,86.80
2023-05-12T04:06:11.609Z,86.80
2023-05-12T04:08:40.336Z,86.63
2023-05-12T04:11:09.310Z,86.54
2023-05-12T04:13:35.726Z,86.61
2023-05-12T04:16:02.219Z,86.66
2023-05-12T04:18:28.947Z,86.75
2023-05-12T04:20:55.788Z,86.94
2023-05-12T04:23:22.624Z,87.23
2023-05-12T04:25:49.153Z,87.19
2023-05-12T04:28:16.074Z,87.36
2023-05-12T04:30:42.858Z,87.33
2023-05-12T04:33:09.524Z,87.27
2023-05-12T04:35:36.219Z,87.72
2023-05-12T04:38:02.645Z,87.37
2023-05-12T04:40:29.305Z,87.53
2023-05-12T04:42:55.775Z,87.33
2023-05-12T04:45:22.542Z,87.39
2023-05-12T04:47:49.321Z,87.22
2023-05-12T04:50:15.795Z,87.52
2023-05-12T04:52:42.200Z,86.82
2023-05-12T04:55:09.065Z,87.17
2023-05-12T04:57:35.528Z,87.48
2023-05-12T05:00:04.939Z,87.25
2023-05-12T05:02:31.795Z,87.46
2023-05-12T05:04:58.304Z,87.53
2023-05-12T05:07:24.727Z,87.40
2023-05-12T05:09:51.077Z,87.39
2023-05-12T05:12:18.118Z,87.55
2023-05-12T05:14:44.540Z,87.53
2023-05-12T05:17:12.258Z,87.54
2023-05-12T05:19:53.489Z,87.35
2023-05-12T05:22:24.592Z,87.74
2023-05-12T05:24:51.761Z,87.78
2023-05-12T05:27:18.248Z,87.65
2023-05-12T05:29:44.657Z,87.59
2023-05-12T05:32:11.392Z,87.81
2023-05-12T05:34:38.189Z,87.64
2023-05-12T05:37:04.839Z,87.48
2023-05-12T05:39:31.495Z,86.99
2023-05-12T05:41:58.190Z,87.61
2023-05-12T05:44:25.119Z,87.81
2023-05-12T05:46:51.788Z,88.01
2023-05-12T05:49:18.470Z,87.85
2023-05-12T05:51:44.932Z,88.03
2023-05-12T05:54:12.116Z,87.92
2023-05-12T05:56:38.597Z,87.45
2023-05-12T05:59:05.335Z,87.61
2023-05-12T06:01:32.369Z,87.14
2023-05-12T06:03:59.102Z,87.25
2023-05-12T06:06:25.721Z,87.30
2023-05-12T06:08:52.139Z,87.10
2023-05-12T06:11:18.532Z,87.12
2023-05-12T06:13:44.898Z,87.24
2023-05-12T06:16:11.351Z,87.21
2023-05-12T06:18:38.286Z,86.93
2023-05-12T06:21:05.587Z,86.87
2023-05-12T06:23:32.009Z,87.08
2023-05-12T06:25:58.362Z,86.34
2023-05-12T06:28:24.852Z,86.16
2023-05-12T06:30:51.225Z,86.49
2023-05-12T06:33:17.610Z,86.28
2023-05-12T06:35:44.007Z,86.38
2023-05-12T06:38:10.494Z,86.04
2023-05-12T06:40:36.946Z,85.67
2023-05-12T06:43:03.333Z,85.27
2023-05-12T06:45:29.765Z,85.69
2023-05-12T06:47:57.525Z,84.87
2023-05-12T06:50:23.977Z,85.06
2023-05-12T06:52:50.485Z,85.56
2023-05-12T06:55:20.061Z,85.86
2023-05-12T06:57:46.803Z,85.57
2023-05-12T07:00:13.849Z,84.59
2023-05-12T07:02:40.355Z,85.45
2023-05-12T07:05:07.125Z,84.86
2023-05-12T07:07:33.584Z,84.65
2023-05-12T07:09:59.976Z,84.42
2023-05-12T07:12:26.411Z,84.84
2023-05-12T07:14:52.840Z,84.46
2023-05-12T07:17:19.244Z,84.47
2023-05-12T07:19:45.667Z,83.70
2023-05-12T07:22:12.114Z,83.35
2023-05-12T07:24:38.593Z,83.80
2023-05-12T07:27:05.820Z,84.21
2023-05-12T07:29:32.189Z,83.44
2023-05-12T07:31:58.645Z,83.26
2023-05-12T07:34:25.106Z,83.24
2023-05-12T07:36:51.496Z,83.14
2023-05-12T07:39:23.239Z,83.06
2023-05-12T07:41:50.507Z,83.00
2023-05-12T07:44:17.140Z,82.14
2023-05-12T07:46:43.562Z,81.74
2023-05-12T07:49:09.940Z,81.11
2023-05-12T07:51:36.410Z,81.55
2023-05-12T07:54:02.955Z,81.40
2023-05-12T07:56:29.302Z,81.31
2023-05-12T07:58:56.073Z,80.88
2023-05-12T08:01:22.450Z,80.07
2023-05-12T08:03:51.179Z,79.79
2023-05-12T08:06:18.283Z,78.98
2023-05-12T08:08:44.885Z,80.34
2023-05-12T08:11:11.432Z,79.45
2023-05-12T08:13:38.214Z,80.74
2023-05-12T08:16:04.798Z,79.06
2023-05-12T08:18:31.356Z,77.44
2023-05-12T08:20:58.141Z,78.34
2023-05-12T08:23:24.574Z,76.76
2023-05-12T08:25:51.043Z,77.48
2023-05-12T08:28:17.417Z,77.40
2023-05-12T08:30:45.053Z,75.74
2023-05-12T08:33:12.261Z,77.39
2023-05-12T08:35:38.732Z,75.99
2023-05-12T08:38:05.822Z,77.56
2023-05-12T08:40:41.843Z,75.19
2023-05-12T08:43:29.489Z,74.98
2023-05-12T08:45:58.253Z,74.25
2023-05-12T08:48:29.363Z,75.43
2023-05-12T08:50:56.833Z,72.12
2023-05-12T08:53:24.271Z,72.94
2023-05-12T08:57:08.297Z,73.86
2023-05-12T08:58:40.777Z,71.97
2023-05-12T09:01:07.981Z,72.33
2023-05-12T09:03:34.666Z,73.47
2023-05-12T09:06:01.740Z,74.12
2023-05-12T09:08:29.544Z,74.83
2023-05-12T09:10:59.430Z,74.26
2023-05-12T09:14:00.319Z,73.77
2023-05-12T09:16:29.674Z,72.60
2023-05-12T09:18:57.824Z,73.34
2023-05-12T09:21:25.182Z,74.06
2023-05-12T09:23:58.800Z,71.91
2023-05-12T09:26:28.934Z,71.57
2023-05-12T09:29:06.601Z,73.45
2023-05-12T09:31:33.078Z,74.09
2023-05-12T09:33:59.598Z,72.41
2023-05-12T09:36:26.110Z,74.09
2023-05-12T09:39:07.423Z,74.22
2023-05-12T09:41:38.208Z,74.36
2023-05-12T09:44:05.690Z,72.35
2023-05-12T09:46:32.496Z,71.58
2023-05-12T09:48:59.104Z,71.27
2023-05-12T09:51:29.212Z,69.72
2023-05-12T09:53:55.762Z,70.57
2023-05-12T09:56:22.808Z,70.25
2023-05-12T09:58:49.992Z,68.01
2023-05-12T10:01:23.302Z,67.55
2023-05-12T10:03:55.595Z,67.10
2023-05-12T10:06:25.784Z,66.90
2023-05-12T10:09:25.644Z,66.97
2023-05-12T10:11:54.007Z,67.57
2023-05-12T10:14:22.597Z,66.38
2023-05-12T10:16:50.256Z,65.87
2023-05-12T10:19:17.467Z,64.78
2023-05-12T10:21:46.989Z,65.99
2023-05-12T10:24:17.331Z,66.51
2023-05-12T10:26:44.577Z,65.57
2023-05-12T10:29:11.813Z,62.98
2023-05-12T10:31:38.957Z,63.49
2023-05-12T10:34:06.729Z,65.37
2023-05-12T10:36:44.302Z,64.35
2023-05-12T10:39:14.259Z,63.78
2023-05-12T10:41:40.714Z,63.16
2023-05-12T10:44:07.115Z,62.34
2023-05-12T10:46:33.531Z,65.06
2023-05-12T10:49:04.138Z,62.59
2023-05-12T10:51:33.104Z,64.45
2023-05-12T10:54:04.585Z,64.19
2023-05-12T10:56:37.589Z,64.11
2023-05-12T10:59:19.062Z,62.79
2023-05-12T11:02:05.319Z,63.50
2023-05-12T11:04:48.568Z,60.85
2023-05-12T11:07:16.639Z,59.46
2023-05-12T11:09:56.869Z,61.63
2023-05-12T11:12:26.709Z,60.41
2023-05-12T11:14:53.277Z,58.42
2023-05-12T11:17:19.726Z,57.23
2023-05-12T11:19:48.172Z,57.93
2023-05-12T11:22:17.264Z,59.19
2023-05-12T11:24:43.786Z,58.50
2023-05-12T11:27:15.017Z,55.21
2023-05-12T11:29:42.287Z,56.05
2023-05-12T11:32:10.416Z,56.68
2023-05-12T11:34:36.886Z,57.27
2023-05-12T11:37:04.158Z,58.10
2023-05-12T11:39:32.375Z,59.86
2023-05-12T11:42:12.981Z,60.00
2023-05-12T11:44:49.141Z,58.77
2023-05-12T11:47:16.690Z,57.16
2023-05-12T11:49:50.232Z,58.12
2023-05-12T11:52:17.410Z,56.64
2023-05-12T11:54:57.434Z,59.87
2023-05-12T11:57:31.623Z,60.74
2023-05-12T12:00:00.635Z,60.46
2023-05-12T12:02:27.915Z,61.69
2023-05-12T12:04:54.426Z,62.66
2023-05-12T12:07:34.826Z,60.63
2023-05-12T12:10:12.218Z,62.01
2023-05-12T12:12:39.412Z,60.17
2023-05-12T12:15:06.331Z,60.94
2023-05-12T12:17:32.801Z,60.41
2023-05-12T12:19:59.368Z,61.38
2023-05-12T12:22:25.846Z,59.92
2023-05-12T12:24:52.429Z,58.96
2023-05-12T12:27:18.848Z,60.94
2023-05-12T12:29:45.281Z,56.73
2023-05-12T12:32:12.110Z,58.98
2023-05-12T12:34:38.546Z,57.87
2023-05-12T12:37:05.406Z,56.95
2023-05-12T12:39:31.785Z,57.84
2023-05-12T12:41:58.963Z,58.26
2023-05-12T12:44:25.411Z,58.82
2023-05-12T12:46:51.804Z,59.87
2023-05-12T12:49:18.225Z,58.29
2023-05-12T12:51:46.649Z,56.85
2023-05-12T12:54:14.786Z,57.04
2023-05-12T12:56:41.711Z,56.88
2023-05-12T12:59:08.156Z,56.27
2023-05-12T13:01:35.088Z,56.36
2023-05-12T13:04:01.663Z,56.82
2023-05-12T13:06:29.201Z,55.59
2023-05-12T13:08:56.388Z,56.36
2023-05-12T13:11:22.896Z,56.42
2023-05-12T13:13:49.241Z,57.78
2023-05-12T13:16:15.790Z,56.81
2023-05-12T13:18:42.344Z,56.09
2023-05-12T13:21:08.852Z,54.23
2023-05-12T13:23:35.294Z,52.79
2023-05-12T13:26:01.693Z,50.05
2023-05-12T13:28:28.582Z,50.13
2023-05-12T13:30:55.087Z,50.27
2023-05-12T13:33:21.526Z,49.66
2023-05-12T13:35:48.086Z,48.64
2023-05-12T13:38:14.544Z,49.88
2023-05-12T13:40:41.543Z,51.14
2023-05-12T13:43:08.410Z,50.79
2023-05-12T13:45:34.788Z,50.42
2023-05-12T13:48:01.222Z,50.80
2023-05-12T13:50:27.823Z,49.80
2023-05-12T13:52:54.235Z,49.27
2023-05-12T13:55:21.608Z,50.19
2023-05-12T13:57:48.841Z,49.19
2023-05-12T14:00:17.211Z,50.32
2023-05-12T14:02:43.884Z,46.57
2023-05-12T14:05:10.697Z,48.90
2023-05-12T14:07:37.181Z,47.88
2023-05-12T14:10:03.582Z,48.58
2023-05-12T14:12:30.242Z,45.94
2023-05-12T14:15:07.824Z,46.51
2023-05-12T14:17:43.251Z,47.64
2023-05-12T14:20:09.996Z,46.67
2023-05-12T14:22:36.731Z,47.13
2023-05-12T14:25:03.588Z,47.76
2023-05-12T14:27:30.028Z,46.88
2023-05-12T14:29:57.238Z,46.37
2023-05-12T14:32:23.714Z,46.57
2023-05-12T14:34:50.131Z,47.13
2023-05-12T14:37:16.570Z,48.01
2023-05-12T14:39:43.001Z,49.12
2023-05-12T14:42:09.420Z,49.13
2023-05-12T14:44:35.870Z,47.93
2023-05-12T14:47:02.400Z,48.99
2023-05-12T14:49:28.825Z,49.21
2023-05-12T14:51:55.456Z,48.99
2023-05-12T14:54:25.712Z,48.33
2023-05-12T14:56:52.800Z,47.05
2023-05-12T14:59:19.306Z,47.33
2023-05-12T15:01:46.011Z,48.03
2023-05-12T15:04:13.160Z,47.42
2023-05-12T15:06:40.016Z,46.90
2023-05-12T15:09:07.179Z,46.13
2023-05-12T15:11:33.621Z,47.36
2023-05-12T15:13:59.967Z,50.75
2023-05-12T15:16:27.928Z,47.89
2023-05-12T15:18:54.506Z,45.87
2023-05-12T15:21:21.008Z,45.75
2023-05-12T15:23:47.462Z,45.09
2023-05-12T15:26:27.235Z,44.84
2023-05-12T15:28:59.349Z,46.50
2023-05-12T15:31:28.414Z,45.43
2023-05-12T15:33:56.392Z,47.11
2023-05-12T15:36:22.778Z,46.83
2023-05-12T15:38:49.173Z,48.76
2023-05-12T15:41:15.574Z,48.49
2023-05-12T15:43:42.386Z,47.80
2023-05-12T15:46:10.679Z,48.73
2023-05-12T15:48:37.505Z,49.71
2023-05-12T15:51:04.127Z,50.48
2023-05-12T15:53:30.991Z,51.64
2023-05-12T15:56:01.354Z,54.65
2023-05-12T15:58:28.531Z,56.47
2023-05-12T16:00:55.306Z,56.33
2023-05-12T16:03:21.899Z,57.85
2023-05-12T16:05:48.373Z,58.26
2023-05-12T16:08:14.900Z,59.69
2023-05-12T16:10:41.442Z,61.94
2023-05-12T16:13:07.858Z,60.67
2023-05-12T16:15:34.286Z,61.16
2023-05-12T16:18:00.778Z,59.82
2023-05-12T16:20:27.275Z,59.92
2023-05-12T16:22:53.695Z,61.37
2023-05-12T16:25:20.374Z,59.18
2023-05-12T16:27:46.980Z,60.20
2023-05-12T16:30:13.837Z,58.57
2023-05-12T16:32:40.302Z,60.13
2023-05-12T16:35:07.513Z,57.63
2023-05-12T16:37:33.877Z,58.56
2023-05-12T16:40:00.441Z,57.02
2023-05-12T16:42:26.908Z,57.77
2023-05-12T16:44:54.657Z,58.66
2023-05-12T16:47:21.225Z,57.08
2023-05-12T16:49:52.006Z,58.44
2023-05-12T16:52:18.455Z,58.77
2023-05-12T16:54:44.983Z,58.48
2023-05-12T16:57:11.426Z,58.74
2023-05-12T16:59:38.682Z,59.42
2023-05-12T17:02:05.680Z,58.96
2023-05-12T17:04:32.294Z,58.99
2023-05-12T17:06:58.683Z,59.39
2023-05-12T17:09:25.171Z,58.85
2023-05-12T17:11:51.586Z,61.28
2023-05-12T17:14:19.417Z,61.80
2023-05-12T17:16:46.586Z,62.94
2023-05-12T17:19:14.631Z,63.09
2023-05-12T17:21:42.270Z,63.06
2023-05-12T17:24:09.130Z,63.33
2023-05-12T17:26:35.795Z,63.49
2023-05-12T17:29:02.430Z,63.65
2023-05-12T17:31:29.047Z,62.54
2023-05-12T17:33:55.538Z,62.58
2023-05-12T17:36:22.055Z,63.81
2023-05-12T17:38:49.882Z,63.84
2023-05-12T17:41:16.434Z,63.56
2023-05-12T17:43:42.902Z,64.33
2023-05-12T17:46:09.531Z,64.89
2023-05-12T17:48:36.017Z,64.74
2023-05-12T17:51:03.375Z,64.33
2023-05-12T17:53:31.168Z,64.99
2023-05-12T17:55:58.252Z,64.84
2023-05-12T17:58:25.067Z,64.54
2023-05-12T18:00:51.931Z,64.87
2023-05-12T18:03:23.218Z,65.09
2023-05-12T18:05:50.619Z,64.86
2023-05-12T18:08:17.259Z,64.86
2023-05-12T18:10:43.905Z,64.90
2023-05-12T18:13:10.646Z,64.31
2023-05-12T18:15:37.078Z,64.92
2023-05-12T18:18:03.499Z,65.39
2023-05-12T18:20:29.987Z,64.12
2023-05-12T18:22:56.386Z,65.18
2023-05-12T18:25:23.104Z,65.63
2023-05-12T18:27:49.582Z,65.32
2023-05-12T18:30:16.079Z,65.44
2023-05-12T18:32:42.559Z,65.33
2023-05-12T18:35:09.414Z,64.85
2023-05-12T18:37:35.866Z,65.35
2023-05-12T18:40:02.502Z,65.19
2023-05-12T18:42:29.176Z,65.58
2023-05-12T18:44:56.009Z,65.80
2023-05-12T18:47:22.440Z,65.35
2023-05-12T18:49:49.297Z,65.82
2023-05-12T18:52:15.738Z,65.70
2023-05-12T18:54:42.203Z,65.67
2023-05-12T18:57:08.757Z,65.91
2023-05-12T18:59:35.200Z,66.74
2023-05-12T19:02:01.970Z,67.29
2023-05-12T19:04:28.559Z,67.55
2023-05-12T19:06:55.045Z,67.42
2023-05-12T19:09:23.598Z,67.99
2023-05-12T19:11:50.367Z,67.70
2023-05-12T19:14:17.318Z,68.23
2023-05-12T19:16:46.470Z,68.53
2023-05-12T19:19:13.136Z,69.37
2023-05-12T19:21:39.575Z,69.23
2023-05-12T19:24:06.257Z,69.62
2023-05-12T19:26:32.647Z,69.44
2023-05-12T19:29:01.959Z,69.26
2023-05-12T19:31:28.545Z,69.11
2023-05-12T19:33:54.980Z,69.02
2023-05-12T19:36:21.383Z,69.10
2023-05-12T19:38:47.928Z,69.20
2023-05-12T19:41:14.341Z,69.63
2023-05-12T19:43:41.048Z,69.78
2023-05-12T19:46:07.609Z,69.90
2023-05-12T19:48:35.404Z,69.74
2023-05-12T19:51:02.160Z,69.61
2023-05-12T19:53:29.231Z,69.91
2023-05-12T19:55:56.644Z,70.12
2023-05-12T19:58:23.406Z,70.60
2023-05-12T20:00:49.890Z,70.27
2023-05-12T20:03:16.786Z,70.33
2023-05-12T20:05:43.848Z,70.54
2023-05-12T20:08:11.273Z,71.45
2023-05-12T20:10:37.898Z,71.32
2023-05-12T20:13:04.678Z,71.11
2023-05-12T20:15:32.080Z,71.08
2023-05-12T20:17:58.627Z,71.18
2023-05-12T20:20:25.191Z,71.45
2023-05-12T20:22:52.123Z,71.49
2023-05-12T20:25:19.662Z,71.78
2023-05-12T20:27:48.049Z,71.74
2023-05-12T20:30:14.472Z,71.95
2023-05-12T20:32:40.942Z,72.44
2023-05-12T20:35:07.709Z,72.02
2023-05-12T20:37:34.269Z,71.80
2023-05-12T20:40:00.804Z,71.49
2023-05-12T20:42:27.347Z,71.11
2023-05-12T20:44:53.812Z,70.76
2023-05-12T20:47:20.353Z,70.80
2023-05-12T20:49:47.134Z,70.21
2023-05-12T20:52:13.640Z,70.36
2023-05-12T20:54:40.082Z,70.05
2023-05-12T20:57:06.452Z,70.33
2023-05-12T20:59:32.910Z,70.01
2023-05-12T21:01:59.491Z,70.62
2023-05-12T21:04:25.976Z,70.77
2023-05-12T21:06:53.795Z,70.71
2023-05-12T21:09:20.420Z,70.51
2023-05-12T21:11:47.237Z,70.81
2023-05-12T21:14:13.675Z,70.16
2023-05-12T21:16:40.222Z,69.95
2023-05-12T21:19:07.067Z,69.19
2023-05-12T21:21:33.567Z,69.83
2023-05-12T21:23:59.978Z,69.73
2023-05-12T21:26:27.291Z,69.42
2023-05-12T21:28:53.714Z,69.29
2023-05-12T21:31:20.143Z,69.41
2023-05-12T21:33:47.636Z,68.76
2023-05-12T21:36:14.073Z,68.58
2023-05-12T21:38:40.520Z,68.66
2023-05-12T21:41:06.915Z,68.24
2023-05-12T21:43:33.364Z,68.65
2023-05-12T21:46:03.851Z,68.01
2023-05-12T21:48:30.960Z,67.65
2023-05-12T21:51:01.312Z,68.11
2023-05-12T21:53:28.679Z,67.37
2023-05-12T21:55:55.260Z,67.19
2023-05-12T21:58:23.411Z,66.35
2023-05-12T22:00:51.166Z,66.32
2023-05-12T22:03:20.189Z,66.47
2023-05-12T22:05:46.979Z,65.63
2023-05-12T22:08:13.922Z,64.56
2023-05-12T22:10:40.341Z,62.94
2023-05-12T22:13:06.693Z,63.70
2023-05-12T22:15:33.208Z,62.98
2023-05-12T22:17:59.940Z,62.71
2023-05-12T22:20:26.748Z,62.37
2023-05-12T22:22:53.285Z,60.98
2023-05-12T22:25:19.668Z,59.93
2023-05-12T22:27:46.046Z,59.69
2023-05-12T22:30:12.846Z,59.94
2023-05-12T22:32:39.324Z,59.13
2023-05-12T22:35:06.492Z,58.30
2023-05-12T22:37:32.900Z,57.19
2023-05-12T22:39:59.292Z,57.88
2023-05-12T22:42:25.691Z,56.65
2023-05-12T22:44:52.171Z,58.04
2023-05-12T22:47:18.788Z,56.58
2023-05-12T22:49:45.420Z,56.96
2023-05-12T22:52:11.799Z,58.11
2023-05-12T22:54:38.284Z,56.18
2023-05-12T22:57:04.719Z,57.32
2023-05-12T22:59:31.131Z,56.58
2023-05-12T23:01:57.689Z,56.72
2023-05-12T23:04:24.188Z,55.67
2023-05-12T23:06:50.849Z,54.95
2023-05-12T23:09:17.262Z,56.14
2023-05-12T23:11:43.679Z,54.39
2023-05-12T23:14:11.368Z,54.98
2023-05-12T23:16:37.864Z,56.54
2023-05-12T23:19:04.437Z,55.29
2023-05-12T23:21:30.967Z,54.60
2023-05-12T23:23:57.343Z,54.48
2023-05-12T23:26:23.827Z,54.67
2023-05-12T23:28:50.470Z,52.83
2023-05-12T23:31:16.912Z,54.11
2023-05-12T23:33:43.593Z,54.03
2023-05-12T23:36:10.080Z,53.95
2023-05-12T23:38:36.469Z,55.62
2023-05-12T23:41:02.896Z,54.78
2023-05-12T23:43:29.265Z,55.44
2023-05-12T23:45:55.777Z,55.13
2023-05-12T23:48:22.158Z,55.62
2023-05-12T23:50:48.641Z,57.47
2023-05-12T23:53:15.183Z,56.97
2023-05-12T23:55:41.586Z,57.74
2023-05-12T23:58:10.573Z,58.75
